sensor_id;sensor_type;location;lat;lon;timestamp;P1;durP1;ratioP1;P2;durP2;ratioP2
6823;SDS011;58633;49.470;11.004;2022-08-27T00:02:05;8.05;;;6.53;;
6823;SDS011;58633;49.470;11.004;2022-08-27T00:04:32;9.50;;;6.50;;
6823;SDS011;58633;49.470;11.004;2022-08-27T00:06:59;8.65;;;5.88;;
6823;SDS011;58633;49.470;11.004;2022-08-27T00:09:25;7.00;;;5.72;;
6823;SDS011;58633;49.470;11.004;2022-08-27T00:11:51;6.82;;;6.03;;
6823;SDS011;58633;49.470;11.004;2022-08-27T00:14:17;5.72;;;5.13;;
6823;SDS011;58633;49.470;11.004;2022-08-27T00:16:42;6.07;;;5.07;;
6823;SDS011;58633;49.470;11.004;2022-08-27T00:19:08;7.57;;;5.28;;
6823;SDS011;58633;49.470;11.004;2022-08-27T00:21:35;6.97;;;5.28;;
6823;SDS011;58633;49.470;11.004;2022-08-27T00:24:01;9.40;;;5.55;;
6823;SDS011;58633;49.470;11.004;2022-08-27T00:26:26;7.40;;;5.53;;
6823;SDS011;58633;49.470;11.004;2022-08-27T00:28:52;7.40;;;5.50;;
6823;SDS011;58633;49.470;11.004;2022-08-27T00:31:18;5.80;;;4.97;;
6823;SDS011;58633;49.470;11.004;2022-08-27T00:33:44;8.85;;;5.93;;
6823;SDS011;58633;49.470;11.004;2022-08-27T00:36:10;9.48;;;5.82;;
6823;SDS011;58633;49.470;11.004;2022-08-27T00:38:37;8.45;;;5.47;;
6823;SDS011;58633;49.470;11.004;2022-08-27T00:41:05;6.78;;;5.53;;
6823;SDS011;58633;49.470;11.004;2022-08-27T00:43:42;6.85;;;5.80;;
6823;SDS011;58633;49.470;11.004;2022-08-27T00:46:17;7.80;;;5.25;;
6823;SDS011;58633;49.470;11.004;2022-08-27T00:49:10;8.48;;;5.70;;
6823;SDS011;58633;49.470;11.004;2022-08-27T00:51:43;7.32;;;5.93;;
6823;SDS011;58633;49.470;11.004;2022-08-27T00:54:14;8.98;;;6.03;;
6823;SDS011;58633;49.470;11.004;2022-08-27T00:56:41;7.45;;;6.28;;
6823;SDS011;58633;49.470;11.004;2022-08-27T00:59:08;7.40;;;5.57;;
6823;SDS011;58633;49.470;11.004;2022-08-27T01:01:37;8.27;;;6.18;;
6823;SDS011;58633;49.470;11.004;2022-08-27T01:04:22;5.88;;;5.30;;
6823;SDS011;58633;49.470;11.004;2022-08-27T01:06:48;9.40;;;5.35;;
6823;SDS011;58633;49.470;11.004;2022-08-27T01:09:14;6.72;;;5.63;;
6823;SDS011;58633;49.470;11.004;2022-08-27T01:11:42;7.13;;;5.70;;
6823;SDS011;58633;49.470;11.004;2022-08-27T01:14:08;10.32;;;6.15;;
6823;SDS011;58633;49.470;11.004;2022-08-27T01:16:35;7.20;;;5.75;;
6823;SDS011;58633;49.470;11.004;2022-08-27T01:19:08;8.43;;;5.60;;
6823;SDS011;58633;49.470;11.004;2022-08-27T01:21:49;10.35;;;6.10;;
6823;SDS011;58633;49.470;11.004;2022-08-27T01:24:38;9.60;;;6.50;;
6823;SDS011;58633;49.470;11.004;2022-08-27T01:27:10;9.05;;;5.70;;
6823;SDS011;58633;49.470;11.004;2022-08-27T01:29:39;5.90;;;5.30;;
6823;SDS011;58633;49.470;11.004;2022-08-27T01:32:16;7.97;;;6.30;;
6823;SDS011;58633;49.470;11.004;2022-08-27T01:34:45;8.43;;;5.90;;
6823;SDS011;58633;49.470;11.004;2022-08-27T01:37:11;8.60;;;6.45;;
6823;SDS011;58633;49.470;11.004;2022-08-27T01:39:38;8.65;;;6.07;;
6823;SDS011;58633;49.470;11.004;2022-08-27T01:42:07;9.98;;;6.15;;
6823;SDS011;58633;49.470;11.004;2022-08-27T01:44:43;7.70;;;5.55;;
6823;SDS011;58633;49.470;11.004;2022-08-27T01:47:14;9.48;;;6.57;;
6823;SDS011;58633;49.470;11.004;2022-08-27T01:49:41;10.57;;;8.25;;
6823;SDS011;58633;49.470;11.004;2022-08-27T01:52:07;11.20;;;7.63;;
6823;SDS011;58633;49.470;11.004;2022-08-27T01:54:32;11.25;;;8.77;;
6823;SDS011;58633;49.470;11.004;2022-08-27T01:56:58;15.63;;;8.82;;
6823;SDS011;58633;49.470;11.004;2022-08-27T01:59:24;10.77;;;8.80;;
6823;SDS011;58633;49.470;11.004;2022-08-27T02:01:50;13.82;;;9.02;;
6823;SDS011;58633;49.470;11.004;2022-08-27T02:04:17;13.00;;;9.82;;
6823;SDS011;58633;49.470;11.004;2022-08-27T02:06:43;13.60;;;10.23;;
6823;SDS011;58633;49.470;11.004;2022-08-27T02:09:08;13.13;;;10.57;;
6823;SDS011;58633;49.470;11.004;2022-08-27T02:11:34;13.80;;;9.88;;
6823;SDS011;58633;49.470;11.004;2022-08-27T02:13:59;10.50;;;9.07;;
6823;SDS011;58633;49.470;11.004;2022-08-27T02:16:25;12.32;;;9.50;;
6823;SDS011;58633;49.470;11.004;2022-08-27T02:18:50;13.88;;;10.02;;
6823;SDS011;58633;49.470;11.004;2022-08-27T02:21:18;14.70;;;9.20;;
6823;SDS011;58633;49.470;11.004;2022-08-27T02:23:44;8.93;;;7.55;;
6823;SDS011;58633;49.470;11.004;2022-08-27T02:26:10;12.65;;;8.60;;
6823;SDS011;58633;49.470;11.004;2022-08-27T02:28:35;12.35;;;8.85;;
6823;SDS011;58633;49.470;11.004;2022-08-27T02:31:01;11.25;;;7.90;;
6823;SDS011;58633;49.470;11.004;2022-08-27T02:33:27;9.88;;;8.75;;
6823;SDS011;58633;49.470;11.004;2022-08-27T02:35:52;13.75;;;7.88;;
6823;SDS011;58633;49.470;11.004;2022-08-27T02:38:19;12.40;;;9.73;;
6823;SDS011;58633;49.470;11.004;2022-08-27T02:40:44;10.43;;;8.55;;
6823;SDS011;58633;49.470;11.004;2022-08-27T02:43:10;10.85;;;7.15;;
6823;SDS011;58633;49.470;11.004;2022-08-27T02:45:36;10.65;;;7.47;;
6823;SDS011;58633;49.470;11.004;2022-08-27T02:48:02;11.98;;;9.00;;
6823;SDS011;58633;49.470;11.004;2022-08-27T02:50:28;8.15;;;7.15;;
6823;SDS011;58633;49.470;11.004;2022-08-27T02:52:54;10.02;;;8.02;;
6823;SDS011;58633;49.470;11.004;2022-08-27T02:55:20;11.10;;;8.10;;
6823;SDS011;58633;49.470;11.004;2022-08-27T02:57:46;11.68;;;7.43;;
6823;SDS011;58633;49.470;11.004;2022-08-27T03:00:13;8.90;;;7.45;;
6823;SDS011;58633;49.470;11.004;2022-08-27T03:02:41;8.88;;;7.25;;
6823;SDS011;58633;49.470;11.004;2022-08-27T03:05:07;8.90;;;6.90;;
6823;SDS011;58633;49.470;11.004;2022-08-27T03:07:35;9.43;;;7.07;;
6823;SDS011;58633;49.470;11.004;2022-08-27T03:10:01;10.32;;;7.72;;
6823;SDS011;58633;49.470;11.004;2022-08-27T03:12:28;9.10;;;7.22;;
6823;SDS011;58633;49.470;11.004;2022-08-27T03:14:54;9.57;;;7.53;;
6823;SDS011;58633;49.470;11.004;2022-08-27T03:17:19;9.65;;;7.07;;
6823;SDS011;58633;49.470;11.004;2022-08-27T03:20:04;9.60;;;7.18;;
6823;SDS011;58633;49.470;11.004;2022-08-27T03:22:31;9.13;;;6.57;;
6823;SDS011;58633;49.470;11.004;2022-08-27T03:24:56;8.75;;;7.25;;
6823;SDS011;58633;49.470;11.004;2022-08-27T03:27:22;9.80;;;7.22;;
6823;SDS011;58633;49.470;11.004;2022-08-27T03:29:47;11.48;;;7.97;;
6823;SDS011;58633;49.470;11.004;2022-08-27T03:32:13;10.27;;;7.15;;
6823;SDS011;58633;49.470;11.004;2022-08-27T03:34:38;11.48;;;7.47;;
6823;SDS011;58633;49.470;11.004;2022-08-27T03:37:04;9.30;;;7.60;;
6823;SDS011;58633;49.470;11.004;2022-08-27T03:39:29;9.80;;;7.78;;
6823;SDS011;58633;49.470;11.004;2022-08-27T03:41:55;10.23;;;7.45;;
6823;SDS011;58633;49.470;11.004;2022-08-27T03:44:21;8.65;;;7.72;;
6823;SDS011;58633;49.470;11.004;2022-08-27T03:46:48;12.23;;;7.68;;
6823;SDS011;58633;49.470;11.004;2022-08-27T03:49:15;8.23;;;6.93;;
6823;SDS011;58633;49.470;11.004;2022-08-27T03:51:42;11.13;;;7.97;;
6823;SDS011;58633;49.470;11.004;2022-08-27T03:54:07;11.25;;;8.48;;
6823;SDS011;58633;49.470;11.004;2022-08-27T03:56:34;8.45;;;7.55;;
6823;SDS011;58633;49.470;11.004;2022-08-27T03:59:03;12.65;;;7.88;;
6823;SDS011;58633;49.470;11.004;2022-08-27T04:01:29;13.48;;;8.57;;
6823;SDS011;58633;49.470;11.004;2022-08-27T04:03:55;8.73;;;7.80;;
6823;SDS011;58633;49.470;11.004;2022-08-27T04:06:21;10.95;;;8.13;;
6823;SDS011;58633;49.470;11.004;2022-08-27T04:08:47;13.25;;;8.70;;
6823;SDS011;58633;49.470;11.004;2022-08-27T04:11:12;12.73;;;8.50;;
6823;SDS011;58633;49.470;11.004;2022-08-27T04:13:38;11.93;;;7.57;;
6823;SDS011;58633;49.470;11.004;2022-08-27T04:16:05;9.20;;;7.15;;
6823;SDS011;58633;49.470;11.004;2022-08-27T04:18:31;9.05;;;7.72;;
6823;SDS011;58633;49.470;11.004;2022-08-27T04:20:56;10.10;;;7.40;;
6823;SDS011;58633;49.470;11.004;2022-08-27T04:23:22;9.05;;;7.35;;
6823;SDS011;58633;49.470;11.004;2022-08-27T04:25:48;10.48;;;7.75;;
6823;SDS011;58633;49.470;11.004;2022-08-27T04:28:14;7.88;;;6.93;;
6823;SDS011;58633;49.470;11.004;2022-08-27T04:30:41;9.07;;;6.85;;
6823;SDS011;58633;49.470;11.004;2022-08-27T04:33:09;10.68;;;7.43;;
6823;SDS011;58633;49.470;11.004;2022-08-27T04:35:36;8.63;;;7.20;;
6823;SDS011;58633;49.470;11.004;2022-08-27T04:38:02;9.07;;;6.22;;
6823;SDS011;58633;49.470;11.004;2022-08-27T04:40:28;7.93;;;6.35;;
6823;SDS011;58633;49.470;11.004;2022-08-27T04:43:14;8.50;;;6.30;;
6823;SDS011;58633;49.470;11.004;2022-08-27T04:45:41;11.90;;;6.10;;
6823;SDS011;58633;49.470;11.004;2022-08-27T04:48:08;8.35;;;6.45;;
6823;SDS011;58633;49.470;11.004;2022-08-27T04:50:37;8.98;;;6.80;;
6823;SDS011;58633;49.470;11.004;2022-08-27T04:53:05;9.77;;;6.30;;
6823;SDS011;58633;49.470;11.004;2022-08-27T04:55:30;8.02;;;6.68;;
6823;SDS011;58633;49.470;11.004;2022-08-27T04:57:56;9.55;;;7.15;;
6823;SDS011;58633;49.470;11.004;2022-08-27T05:00:21;9.93;;;8.13;;
6823;SDS011;58633;49.470;11.004;2022-08-27T05:02:47;8.80;;;7.05;;
6823;SDS011;58633;49.470;11.004;2022-08-27T05:05:13;7.85;;;6.60;;
6823;SDS011;58633;49.470;11.004;2022-08-27T05:07:38;10.38;;;7.35;;
6823;SDS011;58633;49.470;11.004;2022-08-27T05:10:04;12.02;;;7.50;;
6823;SDS011;58633;49.470;11.004;2022-08-27T05:12:30;10.40;;;7.15;;
6823;SDS011;58633;49.470;11.004;2022-08-27T05:14:55;10.25;;;7.57;;
6823;SDS011;58633;49.470;11.004;2022-08-27T05:17:21;9.07;;;7.13;;
6823;SDS011;58633;49.470;11.004;2022-08-27T05:19:47;10.05;;;7.53;;
6823;SDS011;58633;49.470;11.004;2022-08-27T05:22:13;12.65;;;7.90;;
6823;SDS011;58633;49.470;11.004;2022-08-27T05:24:38;9.48;;;7.35;;
6823;SDS011;58633;49.470;11.004;2022-08-27T05:27:04;8.85;;;7.47;;
6823;SDS011;58633;49.470;11.004;2022-08-27T05:29:30;9.45;;;7.22;;
6823;SDS011;58633;49.470;11.004;2022-08-27T05:31:55;9.05;;;7.38;;
6823;SDS011;58633;49.470;11.004;2022-08-27T05:34:21;11.63;;;7.65;;
6823;SDS011;58633;49.470;11.004;2022-08-27T05:36:47;9.95;;;8.18;;
6823;SDS011;58633;49.470;11.004;2022-08-27T05:39:12;11.15;;;8.13;;
6823;SDS011;58633;49.470;11.004;2022-08-27T05:41:38;10.90;;;7.28;;
6823;SDS011;58633;49.470;11.004;2022-08-27T05:44:05;10.40;;;8.30;;
6823;SDS011;58633;49.470;11.004;2022-08-27T05:46:33;10.65;;;8.55;;
6823;SDS011;58633;49.470;11.004;2022-08-27T05:49:00;12.02;;;8.25;;
6823;SDS011;58633;49.470;11.004;2022-08-27T05:51:28;14.23;;;8.40;;
6823;SDS011;58633;49.470;11.004;2022-08-27T05:54:00;11.30;;;8.30;;
6823;SDS011;58633;49.470;11.004;2022-08-27T05:56:29;10.55;;;8.35;;
6823;SDS011;58633;49.470;11.004;2022-08-27T05:58:56;12.45;;;8.43;;
6823;SDS011;58633;49.470;11.004;2022-08-27T06:01:42;11.20;;;8.23;;
6823;SDS011;58633;49.470;11.004;2022-08-27T06:04:10;10.85;;;8.52;;
6823;SDS011;58633;49.470;11.004;2022-08-27T06:06:38;10.90;;;8.55;;
6823;SDS011;58633;49.470;11.004;2022-08-27T06:09:05;11.57;;;9.00;;
6823;SDS011;58633;49.470;11.004;2022-08-27T06:11:31;13.32;;;9.15;;
6823;SDS011;58633;49.470;11.004;2022-08-27T06:13:57;12.00;;;8.93;;
6823;SDS011;58633;49.470;11.004;2022-08-27T06:16:23;11.43;;;8.50;;
6823;SDS011;58633;49.470;11.004;2022-08-27T06:18:49;12.13;;;9.60;;
6823;SDS011;58633;49.470;11.004;2022-08-27T06:21:15;12.23;;;9.55;;
6823;SDS011;58633;49.470;11.004;2022-08-27T06:23:43;14.82;;;10.07;;
6823;SDS011;58633;49.470;11.004;2022-08-27T06:26:10;11.52;;;9.27;;
6823;SDS011;58633;49.470;11.004;2022-08-27T06:28:39;12.82;;;9.40;;
6823;SDS011;58633;49.470;11.004;2022-08-27T06:31:09;12.10;;;9.60;;
6823;SDS011;58633;49.470;11.004;2022-08-27T06:33:37;16.40;;;10.45;;
6823;SDS011;58633;49.470;11.004;2022-08-27T06:36:04;14.63;;;9.73;;
6823;SDS011;58633;49.470;11.004;2022-08-27T06:38:32;11.50;;;8.73;;
6823;SDS011;58633;49.470;11.004;2022-08-27T06:40:58;13.77;;;9.88;;
6823;SDS011;58633;49.470;11.004;2022-08-27T06:43:23;13.77;;;9.65;;
6823;SDS011;58633;49.470;11.004;2022-08-27T06:45:49;11.70;;;10.10;;
6823;SDS011;58633;49.470;11.004;2022-08-27T06:48:15;11.70;;;9.35;;
6823;SDS011;58633;49.470;11.004;2022-08-27T06:50:41;12.95;;;9.43;;
6823;SDS011;58633;49.470;11.004;2022-08-27T06:53:07;11.73;;;9.68;;
6823;SDS011;58633;49.470;11.004;2022-08-27T06:55:40;13.75;;;9.63;;
6823;SDS011;58633;49.470;11.004;2022-08-27T06:58:07;12.82;;;9.82;;
6823;SDS011;58633;49.470;11.004;2022-08-27T07:00:33;13.60;;;9.60;;
6823;SDS011;58633;49.470;11.004;2022-08-27T07:02:59;14.27;;;9.85;;
6823;SDS011;58633;49.470;11.004;2022-08-27T07:05:27;16.50;;;10.88;;
6823;SDS011;58633;49.470;11.004;2022-08-27T07:07:53;13.60;;;9.82;;
6823;SDS011;58633;49.470;11.004;2022-08-27T07:10:19;11.85;;;9.82;;
6823;SDS011;58633;49.470;11.004;2022-08-27T07:12:44;14.30;;;10.15;;
6823;SDS011;58633;49.470;11.004;2022-08-27T07:15:10;15.13;;;11.07;;
6823;SDS011;58633;49.470;11.004;2022-08-27T07:17:35;15.85;;;11.55;;
6823;SDS011;58633;49.470;11.004;2022-08-27T07:20:03;17.58;;;12.18;;
6823;SDS011;58633;49.470;11.004;2022-08-27T07:22:29;17.45;;;12.77;;
6823;SDS011;58633;49.470;11.004;2022-08-27T07:24:54;16.40;;;11.85;;
6823;SDS011;58633;49.470;11.004;2022-08-27T07:27:20;14.48;;;11.68;;
6823;SDS011;58633;49.470;11.004;2022-08-27T07:29:46;16.98;;;12.52;;
6823;SDS011;58633;49.470;11.004;2022-08-27T07:32:11;18.90;;;12.95;;
6823;SDS011;58633;49.470;11.004;2022-08-27T07:34:37;15.40;;;12.48;;
6823;SDS011;58633;49.470;11.004;2022-08-27T07:37:02;20.13;;;12.80;;
6823;SDS011;58633;49.470;11.004;2022-08-27T07:39:28;17.67;;;12.90;;
6823;SDS011;58633;49.470;11.004;2022-08-27T07:41:56;21.92;;;14.25;;
6823;SDS011;58633;49.470;11.004;2022-08-27T07:44:42;17.80;;;13.13;;
6823;SDS011;58633;49.470;11.004;2022-08-27T07:47:07;21.23;;;12.73;;
6823;SDS011;58633;49.470;11.004;2022-08-27T07:49:33;18.05;;;13.15;;
6823;SDS011;58633;49.470;11.004;2022-08-27T07:51:59;19.38;;;12.80;;
6823;SDS011;58633;49.470;11.004;2022-08-27T07:54:26;19.63;;;12.93;;
6823;SDS011;58633;49.470;11.004;2022-08-27T07:56:52;20.15;;;13.85;;
6823;SDS011;58633;49.470;11.004;2022-08-27T07:59:19;18.23;;;12.43;;
6823;SDS011;58633;49.470;11.004;2022-08-27T08:01:44;19.38;;;13.93;;
6823;SDS011;58633;49.470;11.004;2022-08-27T08:04:14;20.48;;;14.43;;
6823;SDS011;58633;49.470;11.004;2022-08-27T08:06:39;20.20;;;13.07;;
6823;SDS011;58633;49.470;11.004;2022-08-27T08:09:05;19.23;;;13.32;;
6823;SDS011;58633;49.470;11.004;2022-08-27T08:11:32;17.40;;;13.32;;
6823;SDS011;58633;49.470;11.004;2022-08-27T08:13:58;23.77;;;14.07;;
6823;SDS011;58633;49.470;11.004;2022-08-27T08:16:24;20.60;;;13.43;;
6823;SDS011;58633;49.470;11.004;2022-08-27T08:18:49;21.50;;;14.25;;
6823;SDS011;58633;49.470;11.004;2022-08-27T08:21:16;18.85;;;13.00;;
6823;SDS011;58633;49.470;11.004;2022-08-27T08:23:42;19.38;;;13.02;;
6823;SDS011;58633;49.470;11.004;2022-08-27T08:26:09;20.25;;;15.07;;
6823;SDS011;58633;49.470;11.004;2022-08-27T08:28:39;20.48;;;13.90;;
6823;SDS011;58633;49.470;11.004;2022-08-27T08:31:06;20.02;;;13.18;;
6823;SDS011;58633;49.470;11.004;2022-08-27T08:33:32;19.98;;;14.40;;
6823;SDS011;58633;49.470;11.004;2022-08-27T08:36:06;20.88;;;14.23;;
6823;SDS011;58633;49.470;11.004;2022-08-27T08:38:34;19.92;;;14.98;;
6823;SDS011;58633;49.470;11.004;2022-08-27T08:41:02;21.95;;;14.27;;
6823;SDS011;58633;49.470;11.004;2022-08-27T08:43:34;19.73;;;14.10;;
6823;SDS011;58633;49.470;11.004;2022-08-27T08:46:20;17.80;;;13.07;;
6823;SDS011;58633;49.470;11.004;2022-08-27T08:48:58;20.17;;;13.35;;
6823;SDS011;58633;49.470;11.004;2022-08-27T08:51:33;21.52;;;13.10;;
6823;SDS011;58633;49.470;11.004;2022-08-27T08:54:06;18.33;;;12.35;;
6823;SDS011;58633;49.470;11.004;2022-08-27T08:56:42;20.77;;;12.43;;
6823;SDS011;58633;49.470;11.004;2022-08-27T08:59:19;19.85;;;13.27;;
6823;SDS011;58633;49.470;11.004;2022-08-27T09:01:47;18.15;;;12.68;;
6823;SDS011;58633;49.470;11.004;2022-08-27T09:04:14;19.80;;;12.60;;
6823;SDS011;58633;49.470;11.004;2022-08-27T09:06:41;17.77;;;11.75;;
6823;SDS011;58633;49.470;11.004;2022-08-27T09:12:08;16.15;;;11.18;;
6823;SDS011;58633;49.470;11.004;2022-08-27T09:14:40;14.07;;;10.82;;
6823;SDS011;58633;49.470;11.004;2022-08-27T09:17:19;15.88;;;11.48;;
6823;SDS011;58633;49.470;11.004;2022-08-27T09:19:46;18.67;;;11.50;;
6823;SDS011;58633;49.470;11.004;2022-08-27T09:22:18;16.95;;;11.45;;
6823;SDS011;58633;49.470;11.004;2022-08-27T09:27:36;16.38;;;11.38;;
6823;SDS011;58633;49.470;11.004;2022-08-27T09:30:07;16.88;;;12.30;;
6823;SDS011;58633;49.470;11.004;2022-08-27T09:32:38;14.88;;;11.57;;
6823;SDS011;58633;49.470;11.004;2022-08-27T09:35:07;17.33;;;12.18;;
6823;SDS011;58633;49.470;11.004;2022-08-27T09:37:39;15.45;;;10.93;;
6823;SDS011;58633;49.470;11.004;2022-08-27T09:42:55;13.38;;;10.35;;
6823;SDS011;58633;49.470;11.004;2022-08-27T09:45:24;15.50;;;10.57;;
6823;SDS011;58633;49.470;11.004;2022-08-27T09:48:03;13.68;;;10.55;;
6823;SDS011;58633;49.470;11.004;2022-08-27T09:50:35;14.73;;;10.48;;
6823;SDS011;58633;49.470;11.004;2022-08-27T09:53:14;14.02;;;10.32;;
6823;SDS011;58633;49.470;11.004;2022-08-27T09:55:53;12.13;;;10.05;;
6823;SDS011;58633;49.470;11.004;2022-08-27T09:58:25;12.20;;;8.82;;
6823;SDS011;58633;49.470;11.004;2022-08-27T10:00:59;13.25;;;9.95;;
6823;SDS011;58633;49.470;11.004;2022-08-27T10:03:29;12.13;;;9.43;;
6823;SDS011;58633;49.470;11.004;2022-08-27T10:05:56;14.77;;;8.57;;
6823;SDS011;58633;49.470;11.004;2022-08-27T10:11:13;12.02;;;9.00;;
6823;SDS011;58633;49.470;11.004;2022-08-27T10:16:42;11.73;;;8.45;;
6823;SDS011;58633;49.470;11.004;2022-08-27T10:19:22;9.45;;;7.10;;
6823;SDS011;58633;49.470;11.004;2022-08-27T10:22:09;7.97;;;6.43;;
6823;SDS011;58633;49.470;11.004;2022-08-27T10:30:01;5.78;;;5.25;;
6823;SDS011;58633;49.470;11.004;2022-08-27T10:36:06;6.97;;;4.78;;
6823;SDS011;58633;49.470;11.004;2022-08-27T10:41:07;5.60;;;4.70;;
6823;SDS011;58633;49.470;11.004;2022-08-27T10:43:45;5.32;;;4.82;;
6823;SDS011;58633;49.470;11.004;2022-08-27T10:46:45;5.97;;;4.55;;
6823;SDS011;58633;49.470;11.004;2022-08-27T10:50:04;6.40;;;5.07;;
6823;SDS011;58633;49.470;11.004;2022-08-27T10:52:50;6.93;;;5.47;;
6823;SDS011;58633;49.470;11.004;2022-08-27T10:55:32;5.68;;;5.05;;
6823;SDS011;58633;49.470;11.004;2022-08-27T10:58:12;5.75;;;5.25;;
6823;SDS011;58633;49.470;11.004;2022-08-27T11:00:52;5.45;;;4.95;;
6823;SDS011;58633;49.470;11.004;2022-08-27T11:03:30;7.53;;;5.43;;
6823;SDS011;58633;49.470;11.004;2022-08-27T11:06:03;7.20;;;5.63;;
6823;SDS011;58633;49.470;11.004;2022-08-27T11:08:51;5.90;;;4.95;;
6823;SDS011;58633;49.470;11.004;2022-08-27T11:11:26;5.35;;;4.85;;
6823;SDS011;58633;49.470;11.004;2022-08-27T11:14:04;5.55;;;5.05;;
6823;SDS011;58633;49.470;11.004;2022-08-27T11:16:39;6.55;;;5.95;;
6823;SDS011;58633;49.470;11.004;2022-08-27T11:19:14;7.20;;;5.78;;
6823;SDS011;58633;49.470;11.004;2022-08-27T11:22:18;6.30;;;5.10;;
6823;SDS011;58633;49.470;11.004;2022-08-27T11:27:43;5.38;;;3.90;;
6823;SDS011;58633;49.470;11.004;2022-08-27T11:33:21;4.70;;;4.20;;
6823;SDS011;58633;49.470;11.004;2022-08-27T11:43:49;4.97;;;4.45;;
6823;SDS011;58633;49.470;11.004;2022-08-27T11:46:21;6.53;;;5.18;;
6823;SDS011;58633;49.470;11.004;2022-08-27T11:48:58;5.72;;;4.57;;
6823;SDS011;58633;49.470;11.004;2022-08-27T11:51:28;4.68;;;4.15;;
6823;SDS011;58633;49.470;11.004;2022-08-27T11:54:06;4.50;;;4.10;;
6823;SDS011;58633;49.470;11.004;2022-08-27T11:56:47;4.38;;;3.97;;
6823;SDS011;58633;49.470;11.004;2022-08-27T11:59:19;4.32;;;3.92;;
6823;SDS011;58633;49.470;11.004;2022-08-27T12:01:47;4.82;;;4.00;;
6823;SDS011;58633;49.470;11.004;2022-08-27T12:04:39;5.32;;;3.97;;
6823;SDS011;58633;49.470;11.004;2022-08-27T12:07:09;6.63;;;4.10;;
6823;SDS011;58633;49.470;11.004;2022-08-27T12:12:59;4.40;;;4.00;;
6823;SDS011;58633;49.470;11.004;2022-08-27T12:15:43;7.70;;;5.40;;
6823;SDS011;58633;49.470;11.004;2022-08-27T12:21:25;8.50;;;5.68;;
6823;SDS011;58633;49.470;11.004;2022-08-27T12:26:39;6.28;;;4.40;;
6823;SDS011;58633;49.470;11.004;2022-08-27T12:29:22;6.28;;;4.00;;
6823;SDS011;58633;49.470;11.004;2022-08-27T12:31:54;7.07;;;4.90;;
6823;SDS011;58633;49.470;11.004;2022-08-27T12:34:45;11.07;;;6.35;;
6823;SDS011;58633;49.470;11.004;2022-08-27T12:37:16;7.18;;;5.28;;
6823;SDS011;58633;49.470;11.004;2022-08-27T12:39:51;7.60;;;4.97;;
6823;SDS011;58633;49.470;11.004;2022-08-27T12:42:21;5.60;;;4.50;;
6823;SDS011;58633;49.470;11.004;2022-08-27T12:44:46;6.28;;;4.53;;
6823;SDS011;58633;49.470;11.004;2022-08-27T12:47:21;4.75;;;4.00;;
6823;SDS011;58633;49.470;11.004;2022-08-27T12:49:50;4.10;;;3.70;;
6823;SDS011;58633;49.470;11.004;2022-08-27T12:58:28;3.75;;;3.20;;
6823;SDS011;58633;49.470;11.004;2022-08-27T13:03:43;4.40;;;2.88;;
6823;SDS011;58633;49.470;11.004;2022-08-27T13:06:34;3.15;;;2.88;;
6823;SDS011;58633;49.470;11.004;2022-08-27T13:09:00;3.60;;;3.08;;
6823;SDS011;58633;49.470;11.004;2022-08-27T13:11:32;3.45;;;3.15;;
6823;SDS011;58633;49.470;11.004;2022-08-27T13:14:05;4.47;;;2.83;;
6823;SDS011;58633;49.470;11.004;2022-08-27T13:16:36;3.70;;;3.33;;
6823;SDS011;58633;49.470;11.004;2022-08-27T13:19:17;6.05;;;3.22;;
6823;SDS011;58633;49.470;11.004;2022-08-27T13:21:49;3.13;;;2.83;;
6823;SDS011;58633;49.470;11.004;2022-08-27T13:24:19;3.15;;;2.83;;
6823;SDS011;58633;49.470;11.004;2022-08-27T13:26:51;5.35;;;3.20;;
6823;SDS011;58633;49.470;11.004;2022-08-27T13:29:23;3.22;;;2.92;;
6823;SDS011;58633;49.470;11.004;2022-08-27T13:31:49;5.00;;;3.00;;
6823;SDS011;58633;49.470;11.004;2022-08-27T13:34:19;3.38;;;3.08;;
6823;SDS011;58633;49.470;11.004;2022-08-27T13:36:55;3.47;;;3.05;;
6823;SDS011;58633;49.470;11.004;2022-08-27T13:39:23;3.13;;;2.90;;
6823;SDS011;58633;49.470;11.004;2022-08-27T13:41:51;3.53;;;3.10;;
6823;SDS011;58633;49.470;11.004;2022-08-27T13:44:23;5.55;;;3.30;;
6823;SDS011;58633;49.470;11.004;2022-08-27T13:46:52;3.65;;;3.05;;
6823;SDS011;58633;49.470;11.004;2022-08-27T13:49:25;3.10;;;2.90;;
6823;SDS011;58633;49.470;11.004;2022-08-27T13:52:03;3.35;;;2.95;;
6823;SDS011;58633;49.470;11.004;2022-08-27T13:54:46;3.20;;;3.00;;
6823;SDS011;58633;49.470;11.004;2022-08-27T13:57:49;3.22;;;2.92;;
6823;SDS011;58633;49.470;11.004;2022-08-27T14:00:13;4.75;;;2.97;;
6823;SDS011;58633;49.470;11.004;2022-08-27T14:02:42;6.53;;;3.00;;
6823;SDS011;58633;49.470;11.004;2022-08-27T14:07:46;3.72;;;3.05;;
6823;SDS011;58633;49.470;11.004;2022-08-27T14:12:45;3.92;;;2.83;;
6823;SDS011;58633;49.470;11.004;2022-08-27T14:15:20;3.00;;;2.70;;
6823;SDS011;58633;49.470;11.004;2022-08-27T14:18:02;3.33;;;3.03;;
6823;SDS011;58633;49.470;11.004;2022-08-27T14:20:30;2.72;;;2.53;;
6823;SDS011;58633;49.470;11.004;2022-08-27T14:22:56;4.78;;;2.78;;
6823;SDS011;58633;49.470;11.004;2022-08-27T14:25:22;4.57;;;2.60;;
6823;SDS011;58633;49.470;11.004;2022-08-27T14:27:49;3.75;;;2.88;;
6823;SDS011;58633;49.470;11.004;2022-08-27T14:30:17;4.28;;;3.13;;
6823;SDS011;58633;49.470;11.004;2022-08-27T14:32:44;5.53;;;2.92;;
6823;SDS011;58633;49.470;11.004;2022-08-27T14:35:13;6.30;;;3.30;;
6823;SDS011;58633;49.470;11.004;2022-08-27T14:37:40;3.65;;;2.97;;
6823;SDS011;58633;49.470;11.004;2022-08-27T14:40:06;4.32;;;3.40;;
6823;SDS011;58633;49.470;11.004;2022-08-27T14:42:34;3.45;;;3.15;;
6823;SDS011;58633;49.470;11.004;2022-08-27T14:45:00;3.65;;;3.35;;
6823;SDS011;58633;49.470;11.004;2022-08-27T14:47:26;3.95;;;3.00;;
6823;SDS011;58633;49.470;11.004;2022-08-27T14:49:52;4.68;;;3.10;;
6823;SDS011;58633;49.470;11.004;2022-08-27T14:52:17;4.15;;;3.10;;
6823;SDS011;58633;49.470;11.004;2022-08-27T14:54:43;4.05;;;3.00;;
6823;SDS011;58633;49.470;11.004;2022-08-27T14:57:10;3.42;;;3.13;;
6823;SDS011;58633;49.470;11.004;2022-08-27T14:59:36;3.42;;;3.13;;
6823;SDS011;58633;49.470;11.004;2022-08-27T15:02:04;3.25;;;2.92;;
6823;SDS011;58633;49.470;11.004;2022-08-27T15:04:31;4.30;;;3.88;;
6823;SDS011;58633;49.470;11.004;2022-08-27T15:06:58;3.65;;;3.35;;
6823;SDS011;58633;49.470;11.004;2022-08-27T15:09:24;3.80;;;3.50;;
6823;SDS011;58633;49.470;11.004;2022-08-27T15:11:50;3.72;;;3.40;;
6823;SDS011;58633;49.470;11.004;2022-08-27T15:14:21;4.07;;;3.65;;
6823;SDS011;58633;49.470;11.004;2022-08-27T15:16:47;5.20;;;3.50;;
6823;SDS011;58633;49.470;11.004;2022-08-27T15:19:14;4.35;;;3.63;;
6823;SDS011;58633;49.470;11.004;2022-08-27T15:21:40;7.07;;;3.47;;
6823;SDS011;58633;49.470;11.004;2022-08-27T15:24:12;8.43;;;3.40;;
6823;SDS011;58633;49.470;11.004;2022-08-27T15:26:41;5.53;;;3.67;;
6823;SDS011;58633;49.470;11.004;2022-08-27T15:29:07;4.28;;;3.72;;
6823;SDS011;58633;49.470;11.004;2022-08-27T15:31:33;4.60;;;3.97;;
6823;SDS011;58633;49.470;11.004;2022-08-27T15:33:59;4.15;;;3.60;;
6823;SDS011;58633;49.470;11.004;2022-08-27T15:36:24;4.40;;;4.00;;
6823;SDS011;58633;49.470;11.004;2022-08-27T15:38:50;4.13;;;3.83;;
6823;SDS011;58633;49.470;11.004;2022-08-27T15:41:16;4.40;;;4.00;;
6823;SDS011;58633;49.470;11.004;2022-08-27T15:43:42;4.28;;;3.88;;
6823;SDS011;58633;49.470;11.004;2022-08-27T15:46:07;5.65;;;3.88;;
6823;SDS011;58633;49.470;11.004;2022-08-27T15:48:34;4.18;;;3.88;;
6823;SDS011;58633;49.470;11.004;2022-08-27T15:51:02;4.53;;;3.80;;
6823;SDS011;58633;49.470;11.004;2022-08-27T15:53:31;4.25;;;3.85;;
6823;SDS011;58633;49.470;11.004;2022-08-27T15:55:57;4.00;;;3.58;;